sensor_id;sensor_type;location;lat;lon;timestamp;P1;durP1;ratioP1;P2;durP2;ratioP2
13425;SDS011;6785;57.918;12.530;2023-02-28T00:00:29;3.07;;;2.40;;
13425;SDS011;6785;57.918;12.530;2023-02-28T00:02:56;4.50;;;2.40;;
13425;SDS011;6785;57.918;12.530;2023-02-28T00:05:23;4.27;;;2.40;;
13425;SDS011;6785;57.918;12.530;2023-02-28T00:07:52;5.03;;;2.53;;
13425;SDS011;6785;57.918;12.530;2023-02-28T00:10:19;5.43;;;2.50;;
13425;SDS011;6785;57.918;12.530;2023-02-28T00:12:48;3.40;;;2.00;;
13425;SDS011;6785;57.918;12.530;2023-02-28T00:15:15;3.47;;;2.10;;
13425;SDS011;6785;57.918;12.530;2023-02-28T00:17:43;3.70;;;2.80;;
13425;SDS011;6785;57.918;12.530;2023-02-28T00:20:11;3.00;;;2.53;;
13425;SDS011;6785;57.918;12.530;2023-02-28T00:22:39;5.73;;;2.80;;
13425;SDS011;6785;57.918;12.530;2023-02-28T00:25:08;4.80;;;2.97;;
13425;SDS011;6785;57.918;12.530;2023-02-28T00:27:36;4.10;;;2.73;;
13425;SDS011;6785;57.918;12.530;2023-02-28T00:30:04;4.13;;;2.70;;
13425;SDS011;6785;57.918;12.530;2023-02-28T00:32:34;7.50;;;2.33;;
13425;SDS011;6785;57.918;12.530;2023-02-28T00:35:03;4.17;;;2.70;;
13425;SDS011;6785;57.918;12.530;2023-02-28T00:37:31;5.43;;;3.07;;
13425;SDS011;6785;57.918;12.530;2023-02-28T00:39:57;3.17;;;2.10;;
13425;SDS011;6785;57.918;12.530;2023-02-28T00:42:24;2.27;;;2.07;;
13425;SDS011;6785;57.918;12.530;2023-02-28T00:44:51;4.37;;;2.27;;
13425;SDS011;6785;57.918;12.530;2023-02-28T00:47:18;2.03;;;1.70;;
13425;SDS011;6785;57.918;12.530;2023-02-28T00:49:44;2.03;;;1.63;;
13425;SDS011;6785;57.918;12.530;2023-02-28T00:52:12;2.13;;;1.83;;
13425;SDS011;6785;57.918;12.530;2023-02-28T00:54:39;2.93;;;2.10;;
13425;SDS011;6785;57.918;12.530;2023-02-28T00:57:06;4.60;;;2.27;;
13425;SDS011;6785;57.918;12.530;2023-02-28T00:59:32;3.47;;;2.23;;
13425;SDS011;6785;57.918;12.530;2023-02-28T01:01:59;2.47;;;2.00;;
13425;SDS011;6785;57.918;12.530;2023-02-28T01:04:26;3.43;;;2.53;;
13425;SDS011;6785;57.918;12.530;2023-02-28T01:06:53;3.47;;;2.10;;
13425;SDS011;6785;57.918;12.530;2023-02-28T01:09:21;3.20;;;2.30;;
13425;SDS011;6785;57.918;12.530;2023-02-28T01:11:47;3.90;;;2.60;;
13425;SDS011;6785;57.918;12.530;2023-02-28T01:14:15;2.97;;;2.20;;
13425;SDS011;6785;57.918;12.530;2023-02-28T01:16:42;3.53;;;2.30;;
13425;SDS011;6785;57.918;12.530;2023-02-28T01:19:09;3.97;;;2.50;;
13425;SDS011;6785;57.918;12.530;2023-02-28T01:21:36;5.30;;;2.67;;
13425;SDS011;6785;57.918;12.530;2023-02-28T01:24:03;3.13;;;2.47;;
13425;SDS011;6785;57.918;12.530;2023-02-28T01:26:33;4.20;;;2.60;;
13425;SDS011;6785;57.918;12.530;2023-02-28T01:29:00;5.00;;;2.93;;
13425;SDS011;6785;57.918;12.530;2023-02-28T01:31:27;4.67;;;3.13;;
13425;SDS011;6785;57.918;12.530;2023-02-28T01:33:53;6.47;;;4.03;;
13425;SDS011;6785;57.918;12.530;2023-02-28T01:36:21;5.00;;;3.73;;
13425;SDS011;6785;57.918;12.530;2023-02-28T01:38:49;5.73;;;4.00;;
13425;SDS011;6785;57.918;12.530;2023-02-28T01:41:17;4.00;;;3.20;;
13425;SDS011;6785;57.918;12.530;2023-02-28T01:43:54;3.50;;;2.97;;
13425;SDS011;6785;57.918;12.530;2023-02-28T01:46:28;4.90;;;3.23;;
13425;SDS011;6785;57.918;12.530;2023-02-28T01:48:56;4.67;;;3.50;;
13425;SDS011;6785;57.918;12.530;2023-02-28T01:51:29;6.23;;;3.00;;
13425;SDS011;6785;57.918;12.530;2023-02-28T01:54:01;3.67;;;3.07;;
13425;SDS011;6785;57.918;12.530;2023-02-28T01:56:32;3.60;;;2.80;;
13425;SDS011;6785;57.918;12.530;2023-02-28T01:59:03;5.40;;;2.73;;
13425;SDS011;6785;57.918;12.530;2023-02-28T02:01:30;4.33;;;2.93;;
13425;SDS011;6785;57.918;12.530;2023-02-28T02:03:58;5.77;;;3.13;;
13425;SDS011;6785;57.918;12.530;2023-02-28T02:06:29;6.13;;;3.00;;
13425;SDS011;6785;57.918;12.530;2023-02-28T02:08:59;3.80;;;2.73;;
13425;SDS011;6785;57.918;12.530;2023-02-28T02:11:26;3.33;;;2.77;;
13425;SDS011;6785;57.918;12.530;2023-02-28T02:13:58;3.43;;;2.20;;
13425;SDS011;6785;57.918;12.530;2023-02-28T02:16:41;3.43;;;2.43;;
13425;SDS011;6785;57.918;12.530;2023-02-28T02:19:25;2.73;;;2.20;;
13425;SDS011;6785;57.918;12.530;2023-02-28T02:22:21;4.23;;;2.20;;
13425;SDS011;6785;57.918;12.530;2023-02-28T02:25:22;2.77;;;2.43;;
13425;SDS011;6785;57.918;12.530;2023-02-28T02:27:59;4.53;;;2.87;;
13425;SDS011;6785;57.918;12.530;2023-02-28T02:31:02;4.83;;;2.97;;
13425;SDS011;6785;57.918;12.530;2023-02-28T02:36:49;4.07;;;2.60;;
13425;SDS011;6785;57.918;12.530;2023-02-28T02:39:21;3.77;;;2.60;;
13425;SDS011;6785;57.918;12.530;2023-02-28T02:41:56;4.13;;;2.90;;
13425;SDS011;6785;57.918;12.530;2023-02-28T02:44:27;2.93;;;2.20;;
13425;SDS011;6785;57.918;12.530;2023-02-28T02:47:01;3.90;;;2.67;;
13425;SDS011;6785;57.918;12.530;2023-02-28T02:49:32;2.73;;;2.43;;
13425;SDS011;6785;57.918;12.530;2023-02-28T02:52:03;3.93;;;2.50;;
13425;SDS011;6785;57.918;12.530;2023-02-28T02:54:33;3.13;;;2.30;;
13425;SDS011;6785;57.918;12.530;2023-02-28T02:57:04;3.70;;;2.20;;
13425;SDS011;6785;57.918;12.530;2023-02-28T02:59:34;4.07;;;2.77;;
13425;SDS011;6785;57.918;12.530;2023-02-28T03:02:02;6.10;;;2.80;;
13425;SDS011;6785;57.918;12.530;2023-02-28T03:04:33;4.53;;;3.00;;
13425;SDS011;6785;57.918;12.530;2023-02-28T03:07:07;2.57;;;2.37;;
13425;SDS011;6785;57.918;12.530;2023-02-28T03:09:34;4.03;;;2.37;;
13425;SDS011;6785;57.918;12.530;2023-02-28T03:12:01;3.20;;;2.43;;
13425;SDS011;6785;57.918;12.530;2023-02-28T03:14:35;4.70;;;2.87;;
13425;SDS011;6785;57.918;12.530;2023-02-28T03:17:20;3.73;;;2.60;;
13425;SDS011;6785;57.918;12.530;2023-02-28T03:20:01;4.07;;;2.57;;
13425;SDS011;6785;57.918;12.530;2023-02-28T03:22:45;3.83;;;2.70;;
13425;SDS011;6785;57.918;12.530;2023-02-28T03:25:23;5.23;;;2.73;;
13425;SDS011;6785;57.918;12.530;2023-02-28T03:28:00;4.37;;;2.60;;
13425;SDS011;6785;57.918;12.530;2023-02-28T03:30:32;3.77;;;3.00;;
13425;SDS011;6785;57.918;12.530;2023-02-28T03:33:06;4.87;;;2.50;;
13425;SDS011;6785;57.918;12.530;2023-02-28T03:35:38;3.23;;;2.53;;
13425;SDS011;6785;57.918;12.530;2023-02-28T03:38:10;6.97;;;2.73;;
13425;SDS011;6785;57.918;12.530;2023-02-28T03:40:42;3.43;;;2.43;;
13425;SDS011;6785;57.918;12.530;2023-02-28T03:43:12;4.17;;;2.47;;
13425;SDS011;6785;57.918;12.530;2023-02-28T03:45:44;3.13;;;2.30;;
13425;SDS011;6785;57.918;12.530;2023-02-28T03:48:13;5.47;;;2.30;;
13425;SDS011;6785;57.918;12.530;2023-02-28T03:50:43;3.90;;;2.43;;
13425;SDS011;6785;57.918;12.530;2023-02-28T03:53:14;3.70;;;2.30;;
13425;SDS011;6785;57.918;12.530;2023-02-28T03:55:47;3.47;;;2.53;;
13425;SDS011;6785;57.918;12.530;2023-02-28T03:58:19;3.30;;;2.20;;
13425;SDS011;6785;57.918;12.530;2023-02-28T04:00:52;4.50;;;2.43;;
13425;SDS011;6785;57.918;12.530;2023-02-28T04:03:25;6.00;;;2.40;;
13425;SDS011;6785;57.918;12.530;2023-02-28T04:05:52;2.47;;;2.07;;
13425;SDS011;6785;57.918;12.530;2023-02-28T04:08:22;2.43;;;2.10;;
13425;SDS011;6785;57.918;12.530;2023-02-28T04:10:50;2.80;;;2.30;;
13425;SDS011;6785;57.918;12.530;2023-02-28T04:13:20;3.03;;;2.40;;
13425;SDS011;6785;57.918;12.530;2023-02-28T04:15:47;3.93;;;2.43;;
13425;SDS011;6785;57.918;12.530;2023-02-28T04:18:14;4.87;;;2.77;;
13425;SDS011;6785;57.918;12.530;2023-02-28T04:20:41;2.90;;;2.50;;
13425;SDS011;6785;57.918;12.530;2023-02-28T04:23:08;2.57;;;2.27;;
13425;SDS011;6785;57.918;12.530;2023-02-28T04:25:36;2.63;;;2.23;;
13425;SDS011;6785;57.918;12.530;2023-02-28T04:28:05;3.43;;;2.60;;
13425;SDS011;6785;57.918;12.530;2023-02-28T04:30:32;4.67;;;2.13;;
13425;SDS011;6785;57.918;12.530;2023-02-28T04:32:59;3.37;;;2.40;;
13425;SDS011;6785;57.918;12.530;2023-02-28T04:35:26;4.40;;;2.70;;
13425;SDS011;6785;57.918;12.530;2023-02-28T04:37:53;5.73;;;2.80;;
13425;SDS011;6785;57.918;12.530;2023-02-28T04:40:20;3.97;;;2.93;;
13425;SDS011;6785;57.918;12.530;2023-02-28T04:42:48;5.53;;;2.37;;
13425;SDS011;6785;57.918;12.530;2023-02-28T04:45:15;4.17;;;3.33;;
13425;SDS011;6785;57.918;12.530;2023-02-28T04:47:42;3.17;;;2.43;;
13425;SDS011;6785;57.918;12.530;2023-02-28T04:50:09;3.30;;;2.67;;
13425;SDS011;6785;57.918;12.530;2023-02-28T04:52:36;4.13;;;2.97;;
13425;SDS011;6785;57.918;12.530;2023-02-28T04:55:03;3.47;;;2.43;;
13425;SDS011;6785;57.918;12.530;2023-02-28T04:57:31;4.23;;;2.50;;
13425;SDS011;6785;57.918;12.530;2023-02-28T04:59:59;4.33;;;3.10;;
13425;SDS011;6785;57.918;12.530;2023-02-28T05:02:25;3.20;;;2.80;;
13425;SDS011;6785;57.918;12.530;2023-02-28T05:04:52;4.63;;;2.47;;
13425;SDS011;6785;57.918;12.530;2023-02-28T05:07:19;4.30;;;2.67;;
13425;SDS011;6785;57.918;12.530;2023-02-28T05:09:46;6.97;;;2.80;;
13425;SDS011;6785;57.918;12.530;2023-02-28T05:12:12;3.90;;;2.90;;
13425;SDS011;6785;57.918;12.530;2023-02-28T05:14:39;5.17;;;3.03;;
13425;SDS011;6785;57.918;12.530;2023-02-28T05:17:07;4.17;;;2.97;;
13425;SDS011;6785;57.918;12.530;2023-02-28T05:19:35;3.57;;;3.07;;
13425;SDS011;6785;57.918;12.530;2023-02-28T05:22:01;3.57;;;2.80;;
13425;SDS011;6785;57.918;12.530;2023-02-28T05:24:28;5.07;;;3.03;;
13425;SDS011;6785;57.918;12.530;2023-02-28T05:26:55;3.93;;;2.93;;
13425;SDS011;6785;57.918;12.530;2023-02-28T05:29:22;5.27;;;3.00;;
13425;SDS011;6785;57.918;12.530;2023-02-28T05:31:48;3.43;;;2.60;;
13425;SDS011;6785;57.918;12.530;2023-02-28T05:34:17;4.80;;;2.90;;
13425;SDS011;6785;57.918;12.530;2023-02-28T05:36:43;3.97;;;3.10;;
13425;SDS011;6785;57.918;12.530;2023-02-28T05:39:10;4.40;;;2.70;;
13425;SDS011;6785;57.918;12.530;2023-02-28T05:41:39;4.83;;;3.23;;
13425;SDS011;6785;57.918;12.530;2023-02-28T05:44:06;4.40;;;2.93;;
13425;SDS011;6785;57.918;12.530;2023-02-28T05:46:33;3.77;;;2.67;;
13425;SDS011;6785;57.918;12.530;2023-02-28T05:48:59;4.90;;;3.13;;
13425;SDS011;6785;57.918;12.530;2023-02-28T05:51:28;3.27;;;2.67;;
13425;SDS011;6785;57.918;12.530;2023-02-28T05:53:57;4.00;;;2.93;;
13425;SDS011;6785;57.918;12.530;2023-02-28T05:56:25;4.30;;;3.30;;
13425;SDS011;6785;57.918;12.530;2023-02-28T05:58:52;4.17;;;3.03;;
13425;SDS011;6785;57.918;12.530;2023-02-28T06:01:19;7.87;;;3.50;;
13425;SDS011;6785;57.918;12.530;2023-02-28T06:03:49;6.93;;;4.13;;
13425;SDS011;6785;57.918;12.530;2023-02-28T06:06:15;5.10;;;3.67;;
13425;SDS011;6785;57.918;12.530;2023-02-28T06:08:43;4.40;;;3.77;;
13425;SDS011;6785;57.918;12.530;2023-02-28T06:11:10;4.57;;;3.10;;
13425;SDS011;6785;57.918;12.530;2023-02-28T06:13:37;6.57;;;3.80;;
13425;SDS011;6785;57.918;12.530;2023-02-28T06:16:04;6.80;;;4.63;;
13425;SDS011;6785;57.918;12.530;2023-02-28T06:18:32;9.27;;;5.70;;
13425;SDS011;6785;57.918;12.530;2023-02-28T06:20:58;7.80;;;6.33;;
13425;SDS011;6785;57.918;12.530;2023-02-28T06:23:25;9.77;;;6.63;;
13425;SDS011;6785;57.918;12.530;2023-02-28T06:25:53;16.97;;;12.27;;
13425;SDS011;6785;57.918;12.530;2023-02-28T06:28:23;19.57;;;12.87;;
13425;SDS011;6785;57.918;12.530;2023-02-28T06:30:50;14.43;;;10.13;;
13425;SDS011;6785;57.918;12.530;2023-02-28T06:33:16;12.20;;;7.23;;
13425;SDS011;6785;57.918;12.530;2023-02-28T06:35:43;10.33;;;6.63;;
13425;SDS011;6785;57.918;12.530;2023-02-28T06:38:10;7.43;;;5.50;;
13425;SDS011;6785;57.918;12.530;2023-02-28T06:40:37;11.67;;;5.83;;
13425;SDS011;6785;57.918;12.530;2023-02-28T06:43:05;6.67;;;5.77;;
13425;SDS011;6785;57.918;12.530;2023-02-28T06:45:32;5.23;;;4.43;;
13425;SDS011;6785;57.918;12.530;2023-02-28T06:47:59;7.60;;;5.20;;
13425;SDS011;6785;57.918;12.530;2023-02-28T06:50:26;9.40;;;5.80;;
13425;SDS011;6785;57.918;12.530;2023-02-28T06:52:54;7.63;;;5.23;;
13425;SDS011;6785;57.918;12.530;2023-02-28T06:55:21;9.07;;;5.00;;
13425;SDS011;6785;57.918;12.530;2023-02-28T06:57:48;6.63;;;4.50;;
13425;SDS011;6785;57.918;12.530;2023-02-28T07:00:17;6.47;;;4.87;;
13425;SDS011;6785;57.918;12.530;2023-02-28T07:02:44;7.40;;;5.03;;
13425;SDS011;6785;57.918;12.530;2023-02-28T07:05:12;8.73;;;4.97;;
13425;SDS011;6785;57.918;12.530;2023-02-28T07:07:39;8.53;;;5.10;;
13425;SDS011;6785;57.918;12.530;2023-02-28T07:10:09;7.93;;;5.10;;
13425;SDS011;6785;57.918;12.530;2023-02-28T07:12:37;8.77;;;4.53;;
13425;SDS011;6785;57.918;12.530;2023-02-28T07:15:04;7.73;;;4.27;;
13425;SDS011;6785;57.918;12.530;2023-02-28T07:17:33;6.73;;;4.60;;
13425;SDS011;6785;57.918;12.530;2023-02-28T07:20:00;10.33;;;4.97;;
13425;SDS011;6785;57.918;12.530;2023-02-28T07:22:29;23.83;;;16.90;;
13425;SDS011;6785;57.918;12.530;2023-02-28T07:24:56;17.50;;;11.53;;
13425;SDS011;6785;57.918;12.530;2023-02-28T07:27:22;7.47;;;5.60;;
13425;SDS011;6785;57.918;12.530;2023-02-28T07:29:50;9.40;;;6.87;;
13425;SDS011;6785;57.918;12.530;2023-02-28T07:32:18;6.83;;;3.93;;
13425;SDS011;6785;57.918;12.530;2023-02-28T07:34:46;5.10;;;4.03;;
13425;SDS011;6785;57.918;12.530;2023-02-28T07:37:13;5.53;;;3.50;;
13425;SDS011;6785;57.918;12.530;2023-02-28T07:39:40;8.90;;;5.77;;
13425;SDS011;6785;57.918;12.530;2023-02-28T07:42:08;11.27;;;7.03;;
13425;SDS011;6785;57.918;12.530;2023-02-28T07:44:37;8.63;;;5.93;;
13425;SDS011;6785;57.918;12.530;2023-02-28T07:47:05;9.70;;;6.47;;
13425;SDS011;6785;57.918;12.530;2023-02-28T07:49:32;8.77;;;6.47;;
13425;SDS011;6785;57.918;12.530;2023-02-28T07:52:01;9.67;;;6.63;;
13425;SDS011;6785;57.918;12.530;2023-02-28T07:54:28;10.20;;;6.27;;
13425;SDS011;6785;57.918;12.530;2023-02-28T07:56:55;5.80;;;4.30;;
13425;SDS011;6785;57.918;12.530;2023-02-28T07:59:22;5.60;;;3.53;;
13425;SDS011;6785;57.918;12.530;2023-02-28T08:01:48;4.97;;;3.50;;
13425;SDS011;6785;57.918;12.530;2023-02-28T08:04:15;5.77;;;4.07;;
13425;SDS011;6785;57.918;12.530;2023-02-28T08:06:42;5.97;;;3.37;;
13425;SDS011;6785;57.918;12.530;2023-02-28T08:09:11;11.43;;;5.43;;
13425;SDS011;6785;57.918;12.530;2023-02-28T08:11:39;7.17;;;3.63;;
13425;SDS011;6785;57.918;12.530;2023-02-28T08:14:05;10.20;;;4.60;;
13425;SDS011;6785;57.918;12.530;2023-02-28T08:16:32;16.60;;;8.27;;
13425;SDS011;6785;57.918;12.530;2023-02-28T08:18:59;15.23;;;6.90;;
13425;SDS011;6785;57.918;12.530;2023-02-28T08:21:26;6.60;;;4.47;;
13425;SDS011;6785;57.918;12.530;2023-02-28T08:23:52;6.47;;;4.37;;
13425;SDS011;6785;57.918;12.530;2023-02-28T08:26:20;5.47;;;3.70;;
13425;SDS011;6785;57.918;12.530;2023-02-28T08:28:47;6.97;;;4.17;;
13425;SDS011;6785;57.918;12.530;2023-02-28T08:31:15;6.57;;;3.90;;
13425;SDS011;6785;57.918;12.530;2023-02-28T08:33:43;5.17;;;4.00;;
13425;SDS011;6785;57.918;12.530;2023-02-28T08:36:11;11.13;;;3.83;;
13425;SDS011;6785;57.918;12.530;2023-02-28T08:38:37;4.67;;;3.17;;
13425;SDS011;6785;57.918;12.530;2023-02-28T08:41:05;3.87;;;3.20;;
13425;SDS011;6785;57.918;12.530;2023-02-28T08:43:35;4.90;;;3.17;;
13425;SDS011;6785;57.918;12.530;2023-02-28T08:46:02;3.97;;;3.13;;
13425;SDS011;6785;57.918;12.530;2023-02-28T08:48:31;4.77;;;2.80;;
13425;SDS011;6785;57.918;12.530;2023-02-28T08:51:01;4.43;;;2.90;;
13425;SDS011;6785;57.918;12.530;2023-02-28T08:53:29;3.70;;;2.80;;
13425;SDS011;6785;57.918;12.530;2023-02-28T08:55:56;4.47;;;2.50;;
13425;SDS011;6785;57.918;12.530;2023-02-28T08:58:24;3.87;;;2.30;;
13425;SDS011;6785;57.918;12.530;2023-02-28T09:00:52;2.63;;;2.10;;
13425;SDS011;6785;57.918;12.530;2023-02-28T09:03:19;4.00;;;2.50;;
13425;SDS011;6785;57.918;12.530;2023-02-28T09:05:53;4.33;;;2.33;;
13425;SDS011;6785;57.918;12.530;2023-02-28T09:08:21;3.87;;;1.70;;
13425;SDS011;6785;57.918;12.530;2023-02-28T09:10:49;3.87;;;2.03;;
13425;SDS011;6785;57.918;12.530;2023-02-28T09:13:16;3.50;;;2.00;;
13425;SDS011;6785;57.918;12.530;2023-02-28T09:15:43;3.30;;;2.30;;
13425;SDS011;6785;57.918;12.530;2023-02-28T09:18:12;2.67;;;2.03;;
13425;SDS011;6785;57.918;12.530;2023-02-28T09:20:39;3.63;;;2.00;;
13425;SDS011;6785;57.918;12.530;2023-02-28T09:23:06;2.90;;;1.90;;
13425;SDS011;6785;57.918;12.530;2023-02-28T09:25:34;3.73;;;2.37;;
13425;SDS011;6785;57.918;12.530;2023-02-28T09:28:01;2.43;;;1.80;;
13425;SDS011;6785;57.918;12.530;2023-02-28T09:30:29;1.90;;;1.73;;
13425;SDS011;6785;57.918;12.530;2023-02-28T09:32:56;2.27;;;1.63;;
13425;SDS011;6785;57.918;12.530;2023-02-28T09:35:24;1.80;;;1.50;;
13425;SDS011;6785;57.918;12.530;2023-02-28T09:37:52;1.73;;;1.40;;
13425;SDS011;6785;57.918;12.530;2023-02-28T09:40:21;2.70;;;1.40;;
13425;SDS011;6785;57.918;12.530;2023-02-28T09:42:50;2.90;;;1.30;;
13425;SDS011;6785;57.918;12.530;2023-02-28T09:45:22;4.30;;;1.93;;
13425;SDS011;6785;57.918;12.530;2023-02-28T09:47:51;6.13;;;2.27;;
13425;SDS011;6785;57.918;12.530;2023-02-28T09:50:22;3.37;;;2.33;;
13425;SDS011;6785;57.918;12.530;2023-02-28T09:52:57;5.03;;;3.20;;
13425;SDS011;6785;57.918;12.530;2023-02-28T09:55:29;3.27;;;2.23;;
13425;SDS011;6785;57.918;12.530;2023-02-28T09:57:59;3.20;;;2.70;;
13425;SDS011;6785;57.918;12.530;2023-02-28T10:00:28;8.57;;;2.67;;
13425;SDS011;6785;57.918;12.530;2023-02-28T10:05:51;2.23;;;1.90;;
13425;SDS011;6785;57.918;12.530;2023-02-28T10:08:23;4.83;;;2.23;;
13425;SDS011;6785;57.918;12.530;2023-02-28T10:10:54;2.70;;;1.90;;
13425;SDS011;6785;57.918;12.530;2023-02-28T10:13:24;4.83;;;2.00;;
13425;SDS011;6785;57.918;12.530;2023-02-28T10:15:56;4.03;;;2.27;;
13425;SDS011;6785;57.918;12.530;2023-02-28T10:18:28;6.07;;;2.23;;
13425;SDS011;6785;57.918;12.530;2023-02-28T10:21:04;4.07;;;2.40;;
13425;SDS011;6785;57.918;12.530;2023-02-28T10:23:34;4.93;;;2.33;;
13425;SDS011;6785;57.918;12.530;2023-02-28T10:26:05;6.90;;;1.67;;
13425;SDS011;6785;57.918;12.530;2023-02-28T10:28:37;4.57;;;2.00;;
13425;SDS011;6785;57.918;12.530;2023-02-28T10:31:05;3.40;;;1.90;;
13425;SDS011;6785;57.918;12.530;2023-02-28T10:33:35;2.77;;;1.93;;
13425;SDS011;6785;57.918;12.530;2023-02-28T10:36:04;2.17;;;1.70;;
13425;SDS011;6785;57.918;12.530;2023-02-28T10:38:33;1.87;;;1.57;;
13425;SDS011;6785;57.918;12.530;2023-02-28T10:41:05;5.90;;;1.90;;
13425;SDS011;6785;57.918;12.530;2023-02-28T10:43:34;2.07;;;1.70;;
13425;SDS011;6785;57.918;12.530;2023-02-28T10:46:02;5.93;;;1.60;;
13425;SDS011;6785;57.918;12.530;2023-02-28T10:48:34;1.83;;;1.30;;
13425;SDS011;6785;57.918;12.530;2023-02-28T10:51:05;2.83;;;1.27;;
13425;SDS011;6785;57.918;12.530;2023-02-28T10:53:34;5.13;;;1.33;;
13425;SDS011;6785;57.918;12.530;2023-02-28T10:56:05;4.70;;;1.30;;
13425;SDS011;6785;57.918;12.530;2023-02-28T10:58:48;1.57;;;1.20;;
13425;SDS011;6785;57.918;12.530;2023-02-28T11:01:18;2.17;;;1.47;;
13425;SDS011;6785;57.918;12.530;2023-02-28T11:03:46;7.53;;;1.37;;
13425;SDS011;6785;57.918;12.530;2023-02-28T11:06:16;2.83;;;1.33;;
13425;SDS011;6785;57.918;12.530;2023-02-28T11:08:46;1.90;;;1.10;;
13425;SDS011;6785;57.918;12.530;2023-02-28T11:11:15;3.47;;;1.10;;
13425;SDS011;6785;57.918;12.530;2023-02-28T11:13:42;1.17;;;1.07;;
13425;SDS011;6785;57.918;12.530;2023-02-28T11:16:11;2.93;;;1.10;;
13425;SDS011;6785;57.918;12.530;2023-02-28T11:18:40;5.47;;;1.10;;
13425;SDS011;6785;57.918;12.530;2023-02-28T11:21:15;2.00;;;1.13;;
13425;SDS011;6785;57.918;12.530;2023-02-28T11:23:45;3.23;;;1.20;;
13425;SDS011;6785;57.918;12.530;2023-02-28T11:26:15;3.77;;;1.07;;
13425;SDS011;6785;57.918;12.530;2023-02-28T11:29:03;2.00;;;0.97;;
13425;SDS011;6785;57.918;12.530;2023-02-28T11:31:37;2.23;;;1.10;;
13425;SDS011;6785;57.918;12.530;2023-02-28T11:36:52;6.17;;;1.40;;
13425;SDS011;6785;57.918;12.530;2023-02-28T11:39:21;5.80;;;1.20;;
13425;SDS011;6785;57.918;12.530;2023-02-28T11:41:53;1.10;;;1.00;;
13425;SDS011;6785;57.918;12.530;2023-02-28T11:44:44;4.07;;;1.50;;
13425;SDS011;6785;57.918;12.530;2023-02-28T11:47:21;4.13;;;1.07;;
13425;SDS011;6785;57.918;12.530;2023-02-28T11:49:59;1.30;;;1.00;;
13425;SDS011;6785;57.918;12.530;2023-02-28T11:52:42;2.53;;;1.33;;
13425;SDS011;6785;57.918;12.530;2023-02-28T11:55:16;4.67;;;1.30;;
13425;SDS011;6785;57.918;12.530;2023-02-28T11:57:51;1.53;;;1.03;;
13425;SDS011;6785;57.918;12.530;2023-02-28T12:00:32;2.30;;;1.50;;
13425;SDS011;6785;57.918;12.530;2023-02-28T12:03:16;4.97;;;2.53;;
13425;SDS011;6785;57.918;12.530;2023-02-28T12:05:54;7.30;;;2.97;;
13425;SDS011;6785;57.918;12.530;2023-02-28T12:08:33;6.37;;;2.57;;
13425;SDS011;6785;57.918;12.530;2023-02-28T12:11:11;1.50;;;1.37;;
13425;SDS011;6785;57.918;12.530;2023-02-28T12:13:46;2.23;;;0.90;;
13425;SDS011;6785;57.918;12.530;2023-02-28T12:16:27;1.30;;;1.20;;
13425;SDS011;6785;57.918;12.530;2023-02-28T12:19:16;2.90;;;1.20;;
13425;SDS011;6785;57.918;12.530;2023-02-28T12:22:03;3.50;;;1.30;;
13425;SDS011;6785;57.918;12.530;2023-02-28T12:24:48;2.43;;;1.37;;
13425;SDS011;6785;57.918;12.530;2023-02-28T12:27:21;1.50;;;1.10;;
13425;SDS011;6785;57.918;12.530;2023-02-28T12:29:52;1.00;;;0.93;;
13425;SDS011;6785;57.918;12.530;2023-02-28T12:32:23;1.17;;;0.90;;
13425;SDS011;6785;57.918;12.530;2023-02-28T12:34:57;1.43;;;1.00;;
13425;SDS011;6785;57.918;12.530;2023-02-28T12:37:29;0.60;;;0.60;;
13425;SDS011;6785;57.918;12.530;2023-02-28T12:40:05;3.67;;;1.17;;
13425;SDS011;6785;57.918;12.530;2023-02-28T12:42:38;1.30;;;1.20;;
13425;SDS011;6785;57.918;12.530;2023-02-28T12:45:09;1.27;;;1.13;;
13425;SDS011;6785;57.918;12.530;2023-02-28T12:47:39;3.13;;;1.13;;
13425;SDS011;6785;57.918;12.530;2023-02-28T12:50:10;3.10;;;1.10;;
13425;SDS011;6785;57.918;12.530;2023-02-28T12:52:39;1.80;;;0.80;;
13425;SDS011;6785;57.918;12.530;2023-02-28T12:55:15;1.10;;;1.00;;
13425;SDS011;6785;57.918;12.530;2023-02-28T12:57:49;1.80;;;1.40;;
13425;SDS011;6785;57.918;12.530;2023-02-28T13:00:25;1.00;;;0.80;;
13425;SDS011;6785;57.918;12.530;2023-02-28T13:03:13;1.43;;;1.10;;
13425;SDS011;6785;57.918;12.530;2023-02-28T13:05:55;1.73;;;1.40;;
13425;SDS011;6785;57.918;12.530;2023-02-28T13:08:41;1.43;;;1.23;;
13425;SDS011;6785;57.918;12.530;2023-02-28T13:11:29;1.10;;;1.00;;
13425;SDS011;6785;57.918;12.530;2023-02-28T13:13:58;2.03;;;1.17;;
13425;SDS011;6785;57.918;12.530;2023-02-28T13:16:27;1.53;;;1.20;;
13425;SDS011;6785;57.918;12.530;2023-02-28T13:19:16;1.67;;;1.30;;
13425;SDS011;6785;57.918;12.530;2023-02-28T13:21:46;2.70;;;1.07;;
13425;SDS011;6785;57.918;12.530;2023-02-28T13:27:22;1.20;;;1.10;;
13425;SDS011;6785;57.918;12.530;2023-02-28T13:29:57;3.70;;;1.00;;
13425;SDS011;6785;57.918;12.530;2023-02-28T13:35:12;2.00;;;1.50;;
13425;SDS011;6785;57.918;12.530;2023-02-28T13:44:09;1.30;;;0.97;;
13425;SDS011;6785;57.918;12.530;2023-02-28T13:46:38;2.90;;;1.20;;
13425;SDS011;6785;57.918;12.530;2023-02-28T13:49:41;2.67;;;1.10;;
13425;SDS011;6785;57.918;12.530;2023-02-28T13:52:10;1.33;;;0.90;;
13425;SDS011;6785;57.918;12.530;2023-02-28T13:54:45;2.13;;;0.90;;
13425;SDS011;6785;57.918;12.530;2023-02-28T13:57:35;1.10;;;0.80;;
13425;SDS011;6785;57.918;12.530;2023-02-28T14:00:19;1.50;;;0.73;;
13425;SDS011;6785;57.918;12.530;2023-02-28T14:03:02;0.80;;;0.80;;
13425;SDS011;6785;57.918;12.530;2023-02-28T14:05:40;1.17;;;0.83;;
13425;SDS011;6785;57.918;12.530;2023-02-28T14:08:10;0.70;;;0.70;;
13425;SDS011;6785;57.918;12.530;2023-02-28T14:10:42;0.80;;;0.80;;
13425;SDS011;6785;57.918;12.530;2023-02-28T14:13:13;0.90;;;0.90;;
13425;SDS011;6785;57.918;12.530;2023-02-28T14:15:57;0.80;;;0.80;;
13425;SDS011;6785;57.918;12.530;2023-02-28T14:18:29;2.47;;;0.90;;
13425;SDS011;6785;57.918;12.530;2023-02-28T14:20:58;0.90;;;0.90;;
13425;SDS011;6785;57.918;12.530;2023-02-28T14:23:40;0.87;;;0.87;;
13425;SDS011;6785;57.918;12.530;2023-02-28T14:26:28;0.93;;;0.87;;
13425;SDS011;6785;57.918;12.530;2023-02-28T14:29:09;0.77;;;0.73;;
13425;SDS011;6785;57.918;12.530;2023-02-28T14:31:54;0.60;;;0.60;;
13425;SDS011;6785;57.918;12.530;2023-02-28T14:34:32;1.33;;;1.00;;
13425;SDS011;6785;57.918;12.530;2023-02-28T14:37:09;1.87;;;0.90;;
13425;SDS011;6785;57.918;12.530;2023-02-28T14:39:41;2.43;;;1.17;;
13425;SDS011;6785;57.918;12.530;2023-02-28T14:44:53;0.97;;;0.90;;
13425;SDS011;6785;57.918;12.530;2023-02-28T14:47:23;1.00;;;0.90;;
13425;SDS011;6785;57.918;12.530;2023-02-28T14:49:53;1.00;;;0.90;;
13425;SDS011;6785;57.918;12.530;2023-02-28T14:52:20;2.53;;;0.87;;
13425;SDS011;6785;57.918;12.530;2023-02-28T14:54:51;1.07;;;0.70;;
13425;SDS011;6785;57.918;12.530;2023-02-28T14:57:20;0.90;;;0.80;;
13425;SDS011;6785;57.918;12.530;2023-02-28T14:59:56;0.93;;;0.70;;
13425;SDS011;6785;57.918;12.530;2023-02-28T15:02:31;3.70;;;0.97;;
13425;SDS011;6785;57.918;12.530;2023-02-28T15:05:01;1.60;;;1.07;;
13425;SDS011;6785;57.918;12.530;2023-02-28T15:07:41;0.90;;;0.80;;
13425;SDS011;6785;57.918;12.530;2023-02-28T15:10:09;0.90;;;0.70;;
13425;SDS011;6785;57.918;12.530;2023-02-28T15:12:39;2.07;;;1.10;;
13425;SDS011;6785;57.918;12.530;2023-02-28T15:15:13;3.23;;;0.90;;
13425;SDS011;6785;57.918;12.530;2023-02-28T15:17:42;1.30;;;1.00;;
13425;SDS011;6785;57.918;12.530;2023-02-28T15:20:12;3.67;;;0.60;;
13425;SDS011;6785;57.918;12.530;2023-02-28T15:22:41;1.00;;;0.93;;
13425;SDS011;6785;57.918;12.530;2023-02-28T15:25:09;0.97;;;0.70;;
13425;SDS011;6785;57.918;12.530;2023-02-28T15:27:42;3.83;;;1.00;;
13425;SDS011;6785;57.918;12.530;2023-02-28T15:30:15;1.77;;;1.40;;
13425;SDS011;6785;57.918;12.530;2023-02-28T15:32:48;2.17;;;1.43;;